Ana Sayfa
METAR-TAF:

METAR-TAF

Havaalanları :

Emporia Municipal Airport

Emporia, Kansas, Amerika Birleşik Devletleri

Enlem: 38-19-44N, Boylam: 096-11-38W, yükseklik: 367 m

Güncel hava durumu gözlemi

Rapor saat 08:37 UTC de 25 dakika önce yapıldı.
Rüzgar kuzey/kuzeydoğudan 4 kt
Sıcaklık -2°C
Nem 100%
Basınç 1019 hPa
Görüş mesafesi: 1.6 km
400 ft yükseklikte parçalı çok bulutlu
1100 ft yükseklikte çok bulutlu
hafif kar, Pus

METAR: KEMP 290837Z AUTO 02004KT 1SM -SN BR BKN004 OVC011 M02/M02 A3008 RMK AO2 P0000 T10171017

Saat: 03:02 (09:02 UTC)


TAF: eksik

4.000'den fazla havaalanı için hava durumu gözlemleri ve tahminleri (METAR ve TAF raporları).

Kullanılabilir istasyonlar harita üzerinde sarı ve kırmızı noktalarla gösterilir.

İstasyonun adını görmek için fareyi noktanın üzerinde gezdirin.

Sonrasında hava gözlem ve tahminlerini görmek için tıklayın.

Haritayı değiştirmek için: yaklaştırmak için siyah artı işaretli yeşil düğmeye ve uzaklaştırmak için de eksi işaretli düğmeye hızla tıklayın; bitişik haritalar için yeşil okları kullanın.


METAR-TAF: